Time;durP1;ratioP1;P1;durP2;ratioP2;P2;SDS_P1;SDS_P2;PMS_P1;PMS_P2;Temp;Humidity;BMP_temperature;BMP_pressure;BME280_temperature;BME280_humidity;BME280_pressure;Samples;Min_cycle;Max_cycle;Signal;HPM_P1;HPM_P2
2021/01/20 00:00:47;;;;;;;9.13;4.63;;;5.80;95.80;;;;;;5106574;27;20126;-76
2021/01/20 00:03:12;;;;;;;5.13;3.35;;;5.70;95.80;;;;;;5093967;27;20035;-77
2021/01/20 00:05:38;;;;;;;6.13;2.67;;;5.70;95.70;;;;;;5091494;27;20363;-77
2021/01/20 00:08:03;;;;;;;6.30;2.88;;;5.70;95.70;;;;;;5094829;27;20080;-77
2021/01/20 00:10:29;;;;;;;10.43;3.00;;;5.60;95.60;;;;;;5108798;27;20069;-77
2021/01/20 00:12:54;;;;;;;6.97;3.25;;;5.70;95.60;;;;;;5110900;27;20375;-77
2021/01/20 00:15:23;;;;;;;10.68;3.22;;;5.70;95.70;;;;;;5107344;27;20062;-77
2021/01/20 00:17:49;;;;;;;3.88;2.28;;;5.70;95.60;;;;;;5091492;27;20430;-77
2021/01/20 00:20:15;;;;;;;5.15;1.92;;;5.70;95.50;;;;;;5094075;27;20130;-77
2021/01/20 00:22:42;;;;;;;7.72;2.72;;;5.70;95.20;;;;;;5074685;27;20031;-77
2021/01/20 00:25:09;;;;;;;6.75;2.00;;;5.70;95.10;;;;;;5077658;27;20047;-77
2021/01/20 00:27:34;;;;;;;4.57;2.08;;;5.70;95.10;;;;;;5090838;27;20031;-76
2021/01/20 00:30:00;;;;;;;7.80;2.92;;;5.70;95.00;;;;;;5111421;27;20027;-76
2021/01/20 00:32:25;;;;;;;5.60;3.17;;;5.60;95.10;;;;;;5091025;27;20054;-76
2021/01/20 00:34:51;;;;;;;2.53;1.75;;;5.60;94.90;;;;;;5091972;27;20031;-76
2021/01/20 00:37:16;;;;;;;7.10;2.70;;;5.60;95.00;;;;;;5081879;27;20026;-77
2021/01/20 00:39:42;;;;;;;5.88;1.58;;;5.60;94.80;;;;;;5093142;27;20422;-77
2021/01/20 00:42:08;;;;;;;9.95;2.95;;;5.60;94.90;;;;;;5093831;27;20378;-78
2021/01/20 00:44:33;;;;;;;2.50;1.58;;;5.60;94.70;;;;;;5088983;27;20020;-77
2021/01/20 00:46:59;;;;;;;5.07;2.42;;;5.60;94.60;;;;;;5097292;28;20548;-76
2021/01/20 00:49:25;;;;;;;11.85;2.97;;;5.60;94.60;;;;;;5094010;27;20042;-77
2021/01/20 00:51:50;;;;;;;3.08;1.92;;;5.60;94.40;;;;;;5092993;27;20697;-77
2021/01/20 00:54:16;;;;;;;9.98;2.15;;;5.60;94.30;;;;;;5110056;27;20064;-77
2021/01/20 00:56:41;;;;;;;3.17;1.17;;;5.50;94.30;;;;;;5077477;27;20513;-77
2021/01/20 00:59:07;;;;;;;7.10;1.33;;;5.50;94.20;;;;;;5109530;27;20024;-77
2021/01/20 01:01:33;;;;;;;7.28;2.75;;;5.50;94.20;;;;;;5051267;27;20035;-77
2021/01/20 01:03:59;;;;;;;5.15;1.42;;;5.50;94.20;;;;;;5053617;27;20031;-76
2021/01/20 01:06:25;;;;;;;2.03;1.58;;;5.50;94.10;;;;;;5109305;27;20482;-76
2021/01/20 01:08:50;;;;;;;2.70;1.40;;;5.50;94.00;;;;;;5091115;27;20794;-76
2021/01/20 01:11:16;;;;;;;3.97;1.35;;;5.50;94.20;;;;;;5092147;27;20138;-77
2021/01/20 01:13:41;;;;;;;6.47;2.33;;;5.40;93.90;;;;;;5092994;27;20085;-77
2021/01/20 01:16:07;;;;;;;4.35;2.08;;;5.40;94.00;;;;;;5090917;27;20023;-77
2021/01/20 01:18:32;;;;;;;0.90;0.80;;;5.40;94.10;;;;;;5093191;27;20241;-77
2021/01/20 01:20:58;;;;;;;6.63;2.80;;;5.40;94.00;;;;;;5070549;27;20074;-77
2021/01/20 01:23:23;;;;;;;7.93;2.50;;;5.40;94.10;;;;;;5105247;27;20059;-77
2021/01/20 01:25:52;;;;;;;6.65;2.45;;;5.40;94.00;;;;;;5075696;27;20486;-78
2021/01/20 01:28:17;;;;;;;4.63;1.77;;;5.40;94.20;;;;;;5075988;27;20067;-77
2021/01/20 01:30:43;;;;;;;3.50;1.75;;;5.40;94.00;;;;;;5088801;27;20034;-77
2021/01/20 01:33:09;;;;;;;7.95;2.75;;;5.40;94.00;;;;;;5089291;27;20035;-76
2021/01/20 01:35:34;;;;;;;8.63;2.60;;;5.40;94.00;;;;;;5091531;27;20072;-76
2021/01/20 01:38:00;;;;;;;5.15;2.80;;;5.40;94.10;;;;;;5107044;27;20050;-77
2021/01/20 01:40:25;;;;;;;3.70;2.42;;;5.40;94.00;;;;;;5110752;27;20065;-76
2021/01/20 01:42:51;;;;;;;3.13;1.98;;;5.50;93.90;;;;;;5092342;27;20035;-77
2021/01/20 01:45:17;;;;;;;3.10;1.77;;;5.50;93.80;;;;;;5091898;27;20502;-77
2021/01/20 01:47:45;;;;;;;7.63;2.88;;;5.50;93.70;;;;;;5077327;27;20032;-76
2021/01/20 01:50:12;;;;;;;4.72;2.38;;;5.50;93.70;;;;;;5074345;27;20936;-77
2021/01/20 01:52:37;;;;;;;6.05;2.90;;;5.50;93.70;;;;;;5076117;27;20019;-78
2021/01/20 01:55:06;;;;;;;5.75;2.22;;;5.40;93.80;;;;;;5089102;27;20107;-77
2021/01/20 01:57:31;;;;;;;2.30;1.42;;;5.40;93.90;;;;;;5090708;27;20031;-76
2021/01/20 01:59:57;;;;;;;4.55;2.70;;;5.40;94.00;;;;;;5067657;27;20030;-78
2021/01/20 02:02:22;;;;;;;3.30;2.10;;;5.50;93.70;;;;;;5091375;27;20019;-77
2021/01/20 02:04:48;;;;;;;5.78;2.95;;;5.50;93.80;;;;;;5106850;27;20032;-77
2021/01/20 02:07:13;;;;;;;2.97;1.83;;;5.50;94.00;;;;;;5092402;27;20027;-77
2021/01/20 02:09:39;;;;;;;8.35;3.10;;;5.50;94.00;;;;;;5091689;27;20096;-77
2021/01/20 02:12:25;;;;;;;5.15;2.72;;;5.50;94.30;;;;;;5076402;27;20069;-77
2021/01/20 02:14:53;;;;;;;;;;;5.50;93.70;;;;;;5093233;27;20116;-77
2021/01/20 02:17:28;;;;;;;3.03;1.40;;;5.50;93.70;;;;;;5125658;27;19911;-77
2021/01/20 02:20:11;;;;;;;5.30;3.10;;;5.60;93.40;;;;;;5107587;28;20082;-77
2021/01/20 02:22:44;;;;;;;5.30;1.88;;;5.60;93.20;;;;;;5108472;27;20028;-77
2021/01/20 02:25:31;;;;;;;4.60;2.05;;;5.60;93.30;;;;;;5073840;27;20054;-77
2021/01/20 02:28:15;;;;;;;7.82;3.03;;;5.60;93.20;;;;;;5108414;27;20501;-78
2021/01/20 02:30:44;;;;;;;6.88;2.45;;;5.70;93.20;;;;;;5091001;27;20030;-78
2021/01/20 02:33:15;;;;;;;4.88;3.08;;;5.70;93.20;;;;;;5087091;28;20039;-77
2021/01/20 02:35:41;;;;;;;7.95;2.80;;;5.70;92.90;;;;;;5075206;27;20056;-77
2021/01/20 02:38:07;;;;;;;2.20;1.33;;;5.70;92.90;;;;;;5091559;27;20023;-77
2021/01/20 02:40:33;;;;;;;3.90;2.20;;;5.70;93.10;;;;;;5074524;27;20124;-78
2021/01/20 02:42:58;;;;;;;10.50;2.75;;;5.70;92.90;;;;;;5108953;27;20107;-78
2021/01/20 02:45:24;;;;;;;7.00;2.35;;;5.80;92.90;;;;;;5084334;27;20066;-77
2021/01/20 02:47:50;;;;;;;5.68;3.08;;;5.80;92.70;;;;;;5074728;27;20027;-76
2021/01/20 02:50:15;;;;;;;4.35;2.60;;;5.80;92.60;;;;;;5091610;27;20068;-77
2021/01/20 02:53:05;;;;;;;7.78;3.20;;;5.80;92.40;;;;;;5106039;27;20376;-78
2021/01/20 02:55:31;;;;;;;7.22;3.08;;;5.80;92.50;;;;;;5100912;28;20536;-76
2021/01/20 02:58:12;;;;;;;2.75;2.10;;;5.90;92.40;;;;;;5090919;27;20027;-77
2021/01/20 03:00:38;;;;;;;6.40;2.08;;;5.90;92.50;;;;;;5077879;28;20070;-78
2021/01/20 03:03:04;;;;;;;3.25;1.73;;;5.90;92.30;;;;;;5090609;28;20574;-77
2021/01/20 03:05:30;;;;;;;2.88;1.20;;;5.90;92.40;;;;;;5089952;28;20517;-77
2021/01/20 03:07:56;;;;;;;1.55;1.45;;;6.00;92.40;;;;;;5089874;28;20031;-77
2021/01/20 03:10:22;;;;;;;2.88;1.40;;;6.00;92.20;;;;;;5107096;28;20039;-77
2021/01/20 03:12:48;;;;;;;3.65;1.92;;;6.00;92.40;;;;;;5075018;28;20031;-77
2021/01/20 03:15:25;;;;;;;5.32;2.65;;;6.00;92.20;;;;;;5092144;28;20097;-77
2021/01/20 03:17:51;;;;;;;4.85;2.22;;;6.00;92.20;;;;;;5085557;28;20052;-77
2021/01/20 03:20:16;;;;;;;2.65;1.95;;;6.00;92.00;;;;;;5091216;28;20043;-77
2021/01/20 03:22:42;;;;;;;6.82;3.10;;;6.10;92.00;;;;;;5088893;28;20024;-78
2021/01/20 03:25:09;;;;;;;6.55;2.47;;;6.10;92.20;;;;;;5085720;28;20185;-77
2021/01/20 03:27:34;;;;;;;6.57;3.40;;;6.10;92.30;;;;;;5107256;28;20067;-76
2021/01/20 03:30:00;;;;;;;4.13;2.70;;;6.10;92.20;;;;;;5073876;28;20023;-77
2021/01/20 03:32:25;;;;;;;5.20;2.17;;;6.10;92.50;;;;;;5107067;28;20050;-77
2021/01/20 03:34:51;;;;;;;5.28;1.85;;;6.10;92.40;;;;;;5082343;28;20051;-78
2021/01/20 03:37:16;;;;;;;4.68;3.22;;;6.10;92.40;;;;;;5108272;28;20031;-78
2021/01/20 03:39:42;;;;;;;6.65;2.35;;;6.10;92.40;;;;;;5087387;28;20509;-77
2021/01/20 03:42:08;;;;;;;5.10;2.83;;;6.10;92.40;;;;;;5107722;28;25623;-77
2021/01/20 03:44:34;;;;;;;4.60;2.03;;;6.10;92.30;;;;;;5087640;28;20484;-77
2021/01/20 03:46:59;;;;;;;5.90;2.70;;;6.10;92.40;;;;;;5076399;28;20136;-76
2021/01/20 03:49:25;;;;;;;4.60;2.70;;;6.10;92.50;;;;;;5073981;28;20106;-77
2021/01/20 03:51:50;;;;;;;6.78;2.50;;;6.10;92.40;;;;;;5084877;27;20054;-77
2021/01/20 03:54:18;;;;;;;3.58;2.38;;;6.10;92.30;;;;;;5112028;27;20106;-85
2021/01/20 03:56:43;;;;;;;5.45;2.08;;;6.10;92.40;;;;;;5076306;27;20111;-83
2021/01/20 03:59:09;;;;;;;2.97;1.80;;;6.10;92.10;;;;;;5091481;27;20449;-78
2021/01/20 04:01:34;;;;;;;1.85;1.08;;;6.10;92.00;;;;;;5107471;27;20466;-78
2021/01/20 04:04:00;;;;;;;4.35;1.85;;;6.20;91.90;;;;;;5080449;27;20107;-77
2021/01/20 04:06:25;;;;;;;4.55;2.10;;;6.20;91.70;;;;;;5095062;27;20038;-78
2021/01/20 04:08:51;;;;;;;5.07;2.33;;;6.20;92.00;;;;;;5093369;27;20436;-78
2021/01/20 04:11:20;;;;;;;3.67;2.10;;;6.20;91.80;;;;;;5094669;27;20521;-78
2021/01/20 04:13:49;;;;;;;3.25;1.95;;;6.30;91.80;;;;;;5107024;27;20050;-78
2021/01/20 04:16:15;;;;;;;3.13;2.10;;;6.10;92.00;;;;;;5092186;27;20424;-77
2021/01/20 04:18:41;;;;;;;2.67;1.48;;;6.20;91.90;;;;;;5094363;27;20027;-78
2021/01/20 04:21:06;;;;;;;2.70;2.03;;;6.20;91.90;;;;;;5109663;27;20063;-77
2021/01/20 04:23:37;;;;;;;4.22;2.50;;;6.20;92.00;;;;;;5088743;27;20382;-78
2021/01/20 04:26:05;;;;;;;5.78;2.95;;;6.20;91.80;;;;;;5090261;27;20039;-78
2021/01/20 04:28:31;;;;;;;5.47;1.88;;;6.20;92.10;;;;;;5072239;27;20020;-77
2021/01/20 04:30:58;;;;;;;5.95;1.98;;;6.20;92.10;;;;;;5092004;27;20073;-77
2021/01/20 04:33:24;;;;;;;11.00;2.25;;;6.20;92.00;;;;;;5080433;27;20386;-77
2021/01/20 04:35:49;;;;;;;3.83;1.80;;;6.20;92.00;;;;;;5093618;27;20034;-79
2021/01/20 04:38:15;;;;;;;6.30;2.65;;;6.20;91.90;;;;;;5077437;27;20024;-77
2021/01/20 04:40:40;;;;;;;8.52;2.25;;;6.20;91.90;;;;;;5093072;27;20027;-78
2021/01/20 04:43:06;;;;;;;7.55;2.55;;;6.20;92.00;;;;;;5109230;27;20033;-77
2021/01/20 04:45:31;;;;;;;4.65;2.65;;;6.20;92.00;;;;;;5091775;27;20061;-78
2021/01/20 04:47:58;;;;;;;4.03;2.47;;;6.30;92.10;;;;;;5081904;27;20459;-77
2021/01/20 04:50:23;;;;;;;6.70;2.22;;;6.30;92.10;;;;;;5093977;27;20037;-77
2021/01/20 04:52:49;;;;;;;3.33;1.75;;;6.30;92.10;;;;;;5089573;27;20122;-77
2021/01/20 04:55:14;;;;;;;5.95;2.60;;;6.30;92.30;;;;;;5083460;27;20023;-77
2021/01/20 04:57:40;;;;;;;4.25;2.80;;;6.30;92.50;;;;;;5090703;27;20099;-78
2021/01/20 05:00:08;;;;;;;4.30;2.30;;;6.20;92.40;;;;;;5091553;27;20031;-77
2021/01/20 05:02:34;;;;;;;3.10;1.90;;;6.20;92.70;;;;;;5088821;27;20031;-77
2021/01/20 05:05:03;;;;;;;6.53;3.25;;;6.20;92.60;;;;;;5105298;27;20031;-77
2021/01/20 05:07:29;;;;;;;5.10;2.17;;;6.20;92.60;;;;;;5100262;27;20455;-77
2021/01/20 05:09:54;;;;;;;4.00;2.72;;;6.20;92.60;;;;;;5091258;27;20043;-76
2021/01/20 05:12:36;;;;;;;4.80;2.72;;;6.20;92.30;;;;;;5076869;27;20364;-77
2021/01/20 05:15:03;;;;;;;5.55;2.40;;;6.20;92.30;;;;;;5087917;27;20035;-76
2021/01/20 05:17:29;;;;;;;6.05;2.75;;;6.20;92.50;;;;;;5107098;27;20418;-77
2021/01/20 05:19:55;;;;;;;3.92;2.53;;;6.20;92.50;;;;;;5108756;27;20043;-77
2021/01/20 05:22:20;;;;;;;4.13;1.70;;;6.30;92.10;;;;;;5092350;27;20113;-77
2021/01/20 05:24:46;;;;;;;6.13;2.70;;;6.20;92.00;;;;;;5075030;27;20031;-78
2021/01/20 05:27:12;;;;;;;4.80;2.75;;;6.20;92.10;;;;;;5092289;27;20070;-76
2021/01/20 05:29:38;;;;;;;3.97;2.47;;;6.10;91.80;;;;;;5091438;27;20096;-77
2021/01/20 05:32:15;;;;;;;5.18;2.78;;;6.00;91.70;;;;;;5085923;27;20108;-77
2021/01/20 05:34:40;;;;;;;5.50;2.88;;;6.10;91.60;;;;;;5091030;27;20016;-77
2021/01/20 05:37:10;;;;;;;5.20;2.42;;;6.10;91.40;;;;;;5092450;27;20026;-77
2021/01/20 05:39:41;;;;;;;4.80;2.47;;;6.10;91.50;;;;;;5088894;27;20031;-76
2021/01/20 05:42:10;;;;;;;4.25;1.80;;;6.00;91.50;;;;;;5075139;27;20407;-78
2021/01/20 05:44:36;;;;;;;5.10;2.30;;;6.00;91.60;;;;;;5087939;27;20034;-78
2021/01/20 05:47:09;;;;;;;3.35;2.30;;;6.00;91.20;;;;;;5074011;27;20080;-77
2021/01/20 05:49:34;;;;;;;6.13;2.45;;;6.00;90.90;;;;;;5066187;27;20506;-77
2021/01/20 05:52:00;;;;;;;3.92;2.30;;;5.90;91.10;;;;;;5091686;27;20172;-78
2021/01/20 05:54:34;;;;;;;3.03;1.73;;;6.00;90.60;;;;;;5078816;27;20490;-77
2021/01/20 05:57:32;;;;;;;7.22;1.88;;;5.90;91.00;;;;;;5092150;27;20104;-78
2021/01/20 05:59:57;;;;;;;6.20;1.98;;;6.00;90.40;;;;;;5068779;27;20095;-77
2021/01/20 06:02:23;;;;;;;2.92;1.15;;;6.00;90.40;;;;;;5077405;27;20023;-77
2021/01/20 06:04:49;;;;;;;3.50;1.67;;;6.00;90.50;;;;;;5092102;27;20133;-77
2021/01/20 06:07:15;;;;;;;3.22;1.35;;;6.10;90.20;;;;;;5091857;27;20019;-77
2021/01/20 06:09:44;;;;;;;4.15;1.60;;;6.10;90.00;;;;;;5090894;27;20471;-77
2021/01/20 06:12:10;;;;;;;4.90;2.00;;;6.10;90.50;;;;;;5081570;27;20066;-77
2021/01/20 06:14:37;;;;;;;7.50;2.03;;;6.20;90.00;;;;;;5087018;27;20032;-77
2021/01/20 06:17:20;;;;;;;3.47;1.15;;;6.30;88.80;;;;;;5075705;27;20038;-76
2021/01/20 06:19:50;;;;;;;1.83;1.02;;;6.40;89.20;;;;;;5090619;27;20088;-76
2021/01/20 06:22:18;;;;;;;3.38;1.08;;;6.40;88.90;;;;;;5090067;27;20031;-77
2021/01/20 06:24:51;;;;;;;2.35;1.52;;;6.50;88.50;;;;;;5091136;27;20227;-77
2021/01/20 06:27:22;;;;;;;1.95;1.20;;;6.50;88.80;;;;;;5094530;27;20114;-77
2021/01/20 06:30:08;;;;;;;3.40;1.50;;;6.60;88.50;;;;;;5094369;27;20420;-77
2021/01/20 06:32:34;;;;;;;2.95;2.15;;;6.60;88.20;;;;;;5076611;27;20033;-77
2021/01/20 06:34:59;;;;;;;3.83;1.27;;;6.70;88.40;;;;;;5101006;27;20023;-77
2021/01/20 06:37:45;;;;;;;1.45;1.00;;;6.80;88.10;;;;;;5092829;27;20023;-77
2021/01/20 06:40:22;;;;;;;3.95;1.45;;;6.80;88.30;;;;;;5085898;27;20027;-76
2021/01/20 06:42:48;;;;;;;2.72;1.77;;;6.80;88.50;;;;;;5107407;28;20076;-77
2021/01/20 06:45:17;;;;;;;1.25;1.15;;;6.80;88.30;;;;;;5084115;27;20112;-76
2021/01/20 06:47:58;;;;;;;2.33;1.20;;;6.90;88.70;;;;;;5105856;28;20500;-77
2021/01/20 06:50:30;;;;;;;3.25;1.50;;;6.90;87.90;;;;;;5107000;27;20031;-77
2021/01/20 06:53:08;;;;;;;4.85;1.40;;;6.90;88.10;;;;;;5075659;27;20461;-76
2021/01/20 06:55:34;;;;;;;4.13;1.63;;;7.00;88.10;;;;;;5072932;27;20027;-77
2021/01/20 06:58:24;;;;;;;6.03;1.67;;;7.00;88.30;;;;;;5090339;27;20027;-77
2021/01/20 07:00:58;;;;;;;2.72;1.33;;;7.00;88.30;;;;;;5090674;28;20092;-77
2021/01/20 07:03:39;;;;;;;2.55;0.95;;;7.00;88.10;;;;;;5107750;28;20027;-77
2021/01/20 07:06:17;;;;;;;2.22;1.10;;;7.00;88.00;;;;;;5108020;28;20049;-76
2021/01/20 07:08:54;;;;;;;4.38;1.77;;;7.00;88.00;;;;;;5088021;28;20062;-76
2021/01/20 07:11:20;;;;;;;1.02;0.93;;;7.10;88.00;;;;;;5083597;28;20031;-77
2021/01/20 07:13:45;;;;;;;2.47;1.65;;;7.10;87.80;;;;;;5090059;28;20360;-77
2021/01/20 07:16:12;;;;;;;1.58;1.17;;;7.10;87.50;;;;;;5085905;28;20544;-77
2021/01/20 07:18:40;;;;;;;4.45;1.48;;;7.10;87.20;;;;;;5088150;28;20034;-76
2021/01/20 07:21:05;;;;;;;1.90;1.25;;;7.10;87.50;;;;;;5074160;28;20498;-77
2021/01/20 07:23:31;;;;;;;2.72;1.27;;;7.10;87.60;;;;;;5073046;28;20027;-76
2021/01/20 07:25:56;;;;;;;2.08;0.77;;;7.10;87.60;;;;;;5106733;28;20031;-77
2021/01/20 07:28:22;;;;;;;3.35;1.40;;;7.10;88.10;;;;;;5096845;27;20114;-76
2021/01/20 07:30:48;;;;;;;0.70;0.70;;;7.10;88.20;;;;;;5077123;27;20102;-77
2021/01/20 07:33:17;;;;;;;4.70;1.58;;;7.10;88.50;;;;;;5104799;27;20057;-78
2021/01/20 07:35:43;;;;;;;3.58;1.00;;;7.10;89.10;;;;;;5094814;27;20031;-76
2021/01/20 07:38:08;;;;;;;4.70;2.08;;;7.10;89.10;;;;;;5111608;27;20387;-77
2021/01/20 07:40:36;;;;;;;2.28;1.60;;;7.00;89.10;;;;;;5091231;27;20035;-77
2021/01/20 07:43:02;;;;;;;1.45;0.85;;;7.10;88.90;;;;;;5090773;27;20030;-77
2021/01/20 07:45:34;;;;;;;2.90;0.98;;;7.00;89.50;;;;;;5093184;27;20035;-78
2021/01/20 07:48:01;;;;;;;2.75;1.23;;;7.10;89.20;;;;;;5092028;27;20102;-76
2021/01/20 07:50:35;;;;;;;2.83;0.90;;;7.00;89.40;;;;;;5089488;27;20367;-77
2021/01/20 07:53:01;;;;;;;2.40;1.52;;;7.00;89.70;;;;;;5106356;27;20034;-77
2021/01/20 07:55:26;;;;;;;2.38;1.27;;;7.00;89.70;;;;;;5075753;27;20031;-77
2021/01/20 07:57:56;;;;;;;3.72;1.55;;;7.00;89.70;;;;;;5092952;27;20049;-78
2021/01/20 08:00:22;;;;;;;1.85;1.02;;;7.00;89.60;;;;;;4388527;27;9999867;-77
2021/01/20 08:02:49;;;;;;;2.13;1.20;;;7.00;89.20;;;;;;5089166;27;20223;-76
2021/01/20 08:05:14;;;;;;;2.08;0.70;;;7.00;88.70;;;;;;5073751;27;20035;-77
2021/01/20 08:07:40;;;;;;;2.30;1.33;;;7.00;88.50;;;;;;5074479;27;20475;-76
2021/01/20 08:10:17;;;;;;;2.65;1.60;;;7.00;88.50;;;;;;5093375;27;20373;-76
2021/01/20 08:12:43;;;;;;;1.58;1.30;;;7.00;88.80;;;;;;5075530;27;20089;-76
2021/01/20 08:15:08;;;;;;;1.98;0.95;;;7.10;88.20;;;;;;5092552;27;20417;-76
2021/01/20 08:17:37;;;;;;;0.63;0.50;;;7.10;87.90;;;;;;5073827;27;20046;-77
2021/01/20 08:20:03;;;;;;;3.53;1.13;;;7.10;87.60;;;;;;5089980;27;20035;-76
2021/01/20 08:22:28;;;;;;;1.58;0.82;;;7.20;87.30;;;;;;5091252;27;20027;-77
2021/01/20 08:24:54;;;;;;;2.10;0.90;;;7.20;87.70;;;;;;5076939;27;20037;-77
2021/01/20 08:27:27;;;;;;;4.20;1.52;;;7.20;88.10;;;;;;5092703;27;20027;-76
2021/01/20 08:29:54;;;;;;;1.48;0.80;;;7.20;88.70;;;;;;5089379;27;20032;-76
2021/01/20 08:32:20;;;;;;;1.23;0.65;;;7.20;89.30;;;;;;5078063;27;20439;-76
2021/01/20 08:34:46;;;;;;;1.17;0.80;;;7.20;90.20;;;;;;5076106;27;20312;-77
2021/01/20 08:37:18;;;;;;;2.00;1.10;;;7.20;90.80;;;;;;5092307;27;20390;-76
2021/01/20 08:39:57;;;;;;;4.05;1.52;;;7.10;91.30;;;;;;4753906;27;9999663;-76
2021/01/20 08:42:28;;;;;;;1.02;0.82;;;7.10;91.80;;;;;;5074842;27;20411;-76
2021/01/20 08:45:21;;;;;;;1.55;1.10;;;7.00;91.90;;;;;;5066525;27;20466;-77
2021/01/20 08:47:55;;;;;;;1.70;0.80;;;7.00;92.00;;;;;;5092586;27;20050;-76
2021/01/20 08:50:41;;;;;;;3.30;1.92;;;7.00;92.00;;;;;;5092412;27;20027;-79
2021/01/20 08:53:13;;;;;;;5.65;2.17;;;7.00;91.70;;;;;;5070005;27;20555;-76
2021/01/20 08:55:40;;;;;;;1.02;0.90;;;7.00;91.50;;;;;;5105102;27;20027;-76
2021/01/20 08:58:25;;;;;;;3.30;1.85;;;6.90;91.50;;;;;;5074870;27;20106;-76
2021/01/20 09:00:52;;;;;;;3.35;1.52;;;6.90;91.20;;;;;;5092800;27;20024;-76
2021/01/20 09:03:18;;;;;;;2.13;0.75;;;6.90;91.20;;;;;;5109125;27;20466;-77
2021/01/20 09:05:45;;;;;;;2.92;1.73;;;6.90;91.10;;;;;;5100029;27;20620;-76
2021/01/20 09:08:10;;;;;;;2.17;1.20;;;6.90;90.80;;;;;;5075121;27;20027;-75
2021/01/20 09:10:36;;;;;;;2.78;1.67;;;6.90;90.60;;;;;;5086213;27;20780;-77
2021/01/20 09:13:02;;;;;;;2.60;1.88;;;6.90;90.60;;;;;;5091506;27;20031;-77
2021/01/20 09:15:27;;;;;;;3.53;1.60;;;7.00;90.40;;;;;;5075910;27;20028;-77
2021/01/20 09:17:53;;;;;;;3.97;1.92;;;6.90;90.20;;;;;;5075974;27;20043;-76
2021/01/20 09:20:18;;;;;;;2.75;1.30;;;7.00;90.40;;;;;;5102109;27;20035;-77
2021/01/20 09:22:44;;;;;;;1.55;0.68;;;7.00;90.40;;;;;;5075615;27;20036;-77
2021/01/20 09:25:10;;;;;;;1.83;1.20;;;7.00;90.20;;;;;;5091938;27;20027;-77
2021/01/20 09:27:36;;;;;;;3.38;1.98;;;7.00;89.70;;;;;;5091445;27;20483;-76
2021/01/20 09:30:01;;;;;;;3.83;1.50;;;7.10;90.00;;;;;;5091571;27;20037;-77
2021/01/20 09:32:27;;;;;;;5.22;1.98;;;7.10;89.70;;;;;;5107479;27;20024;-76
2021/01/20 09:34:52;;;;;;;2.58;1.73;;;7.20;89.00;;;;;;5091555;27;20062;-77
2021/01/20 09:37:18;;;;;;;3.30;1.52;;;7.20;88.50;;;;;;5091015;27;20118;-78
2021/01/20 09:39:43;;;;;;;2.70;1.35;;;7.30;88.70;;;;;;5092590;27;20394;-77
2021/01/20 09:42:09;;;;;;;1.75;1.08;;;7.30;88.80;;;;;;5086497;27;20566;-77
2021/01/20 09:44:35;;;;;;;2.22;1.58;;;7.40;88.50;;;;;;5075726;27;20038;-78
2021/01/20 09:47:03;;;;;;;3.10;1.60;;;7.40;86.90;;;;;;5108596;27;20050;-77
2021/01/20 09:49:29;;;;;;;3.38;1.73;;;7.60;87.10;;;;;;5091167;27;20027;-78
2021/01/20 09:51:54;;;;;;;4.75;1.48;;;7.60;86.50;;;;;;5087565;27;20038;-77
2021/01/20 09:54:20;;;;;;;3.90;2.38;;;7.80;87.50;;;;;;5073521;27;20122;-77
2021/01/20 09:56:46;;;;;;;2.97;1.70;;;7.80;85.00;;;;;;5074843;27;20023;-77
2021/01/20 09:59:11;;;;;;;3.63;2.05;;;7.90;86.20;;;;;;5092247;27;20483;-77
2021/01/20 10:01:58;;;;;;;4.93;1.85;;;7.90;84.60;;;;;;5088017;27;20026;-78
2021/01/20 10:04:23;;;;;;;2.65;1.52;;;8.00;84.90;;;;;;5090484;27;20035;-77
2021/01/20 10:06:51;;;;;;;2.75;1.60;;;8.00;84.40;;;;;;5091170;27;20046;-77
2021/01/20 10:09:16;;;;;;;5.72;2.45;;;8.20;85.50;;;;;;5081919;27;20510;-78
2021/01/20 10:11:43;;;;;;;4.03;2.13;;;8.40;82.70;;;;;;5066817;27;20031;-78
2021/01/20 10:14:08;;;;;;;4.68;2.10;;;8.40;83.10;;;;;;5090965;27;20039;-77
2021/01/20 10:16:34;;;;;;;3.88;1.92;;;8.50;83.50;;;;;;5089687;27;20050;-78
2021/01/20 10:18:59;;;;;;;5.65;1.80;;;8.50;83.00;;;;;;5085651;27;20045;-79
2021/01/20 10:21:25;;;;;;;2.55;1.50;;;8.70;83.80;;;;;;5096170;27;20434;-78
2021/01/20 10:23:50;;;;;;;3.50;2.13;;;8.90;81.40;;;;;;5077843;27;20035;-78
2021/01/20 10:26:16;;;;;;;2.70;1.65;;;8.80;82.60;;;;;;5088663;27;20122;-78
2021/01/20 10:28:43;;;;;;;6.10;1.92;;;9.00;81.10;;;;;;5073909;27;20144;-78
2021/01/20 10:31:09;;;;;;;4.68;2.10;;;9.00;81.90;;;;;;5091216;27;20089;-79
2021/01/20 10:33:34;;;;;;;2.78;1.52;;;9.30;80.60;;;;;;5103737;27;20034;-78
2021/01/20 10:36:00;;;;;;;3.83;2.38;;;9.50;79.70;;;;;;5103912;27;20557;-77
2021/01/20 10:38:25;;;;;;;3.55;1.73;;;9.60;78.90;;;;;;5090873;27;20034;-77
2021/01/20 10:40:51;;;;;;;5.07;1.95;;;9.60;77.60;;;;;;5073771;27;20033;-78
2021/01/20 10:43:16;;;;;;;6.55;1.98;;;9.40;78.10;;;;;;5074199;27;20505;-77
2021/01/20 10:45:44;;;;;;;4.13;2.10;;;9.50;76.70;;;;;;5089742;27;20445;-78
2021/01/20 10:48:10;;;;;;;0.85;0.73;;;9.60;76.50;;;;;;5078066;27;20058;-77
2021/01/20 10:50:35;;;;;;;7.18;1.60;;;9.60;76.60;;;;;;5090280;27;20470;-78
2021/01/20 10:53:01;;;;;;;2.50;2.00;;;9.80;75.40;;;;;;5103402;27;20027;-76
2021/01/20 10:55:26;;;;;;;2.00;1.25;;;9.90;73.60;;;;;;5073629;27;20035;-78
2021/01/20 10:57:52;;;;;;;4.30;2.22;;;9.90;74.20;;;;;;5085364;27;20039;-77
2021/01/20 11:00:18;;;;;;;6.22;1.73;;;10.20;72.40;;;;;;5074463;28;20027;-76
2021/01/20 11:02:44;;;;;;;3.70;1.98;;;10.20;74.60;;;;;;5103648;27;20067;-77
2021/01/20 11:05:10;;;;;;;2.78;1.17;;;10.00;72.80;;;;;;5088841;28;20058;-77
2021/01/20 11:07:35;;;;;;;6.60;1.92;;;10.20;72.50;;;;;;5088325;28;20030;-77
2021/01/20 11:10:04;;;;;;;3.97;1.98;;;10.30;71.90;;;;;;5091459;28;20023;-78
2021/01/20 11:12:30;;;;;;;2.92;1.30;;;10.60;71.20;;;;;;5074198;28;20106;-77
2021/01/20 11:14:56;;;;;;;3.97;1.95;;;10.60;70.60;;;;;;5106731;28;20115;-77
2021/01/20 11:17:21;;;;;;;1.05;0.95;;;10.30;72.30;;;;;;5071776;28;20034;-77
2021/01/20 11:19:47;;;;;;;4.00;2.10;;;10.60;69.40;;;;;;5106746;28;20043;-76
2021/01/20 11:22:12;;;;;;;4.32;1.88;;;10.60;69.50;;;;;;5082639;28;20020;-77
2021/01/20 11:24:38;;;;;;;5.00;2.05;;;10.70;69.40;;;;;;5106740;28;20023;-76
2021/01/20 11:27:04;;;;;;;4.32;2.50;;;11.00;67.30;;;;;;5089657;28;20049;-76
2021/01/20 11:29:29;;;;;;;1.73;1.17;;;11.00;67.90;;;;;;5088261;28;20034;-77
2021/01/20 11:31:55;;;;;;;3.97;1.95;;;11.10;67.20;;;;;;5106115;28;20136;-76
2021/01/20 11:34:20;;;;;;;1.50;1.17;;;11.00;68.30;;;;;;5088913;28;20521;-76
2021/01/20 11:36:46;;;;;;;2.50;1.20;;;11.10;65.60;;;;;;5089316;28;20031;-76
2021/01/20 11:39:21;;;;;;;3.09;1.99;;;11.00;65.60;;;;;;5052643;28;10001058;-77
2021/01/20 11:41:47;;;;;;;3.63;1.70;;;10.90;65.80;;;;;;4737785;28;9999801;-77
2021/01/20 11:44:13;;;;;;;4.72;2.13;;;11.00;66.20;;;;;;5088485;28;20034;-76
2021/01/20 11:46:38;;;;;;;1.83;1.35;;;10.90;65.70;;;;;;5087440;28;20031;-77
2021/01/20 11:49:13;;;;;;;5.25;1.92;;;10.80;65.30;;;;;;5089951;28;20035;-77
2021/01/20 11:51:39;;;;;;;3.08;1.63;;;10.70;65.70;;;;;;5080923;27;20527;-76
2021/01/20 11:54:04;;;;;;;2.53;1.30;;;10.70;65.40;;;;;;5106748;28;20028;-77
2021/01/20 11:56:30;;;;;;;1.13;1.02;;;10.70;65.10;;;;;;5090749;28;20076;-76
2021/01/20 11:58:56;;;;;;;5.07;2.05;;;10.60;65.70;;;;;;5085778;28;20032;-77
2021/01/20 12:01:22;;;;;;;2.63;1.42;;;10.50;64.60;;;;;;5072162;28;20495;-76
2021/01/20 12:03:49;;;;;;;4.55;1.15;;;10.60;66.30;;;;;;5088393;28;20106;-76
2021/01/20 12:06:14;;;;;;;3.30;2.10;;;10.50;63.90;;;;;;5088298;28;20046;-77
2021/01/20 12:08:40;;;;;;;1.05;0.73;;;10.40;64.60;;;;;;5106636;28;20035;-77
2021/01/20 12:11:05;;;;;;;4.55;1.80;;;10.40;64.70;;;;;;5085804;28;20033;-77
2021/01/20 12:13:31;;;;;;;4.90;2.05;;;10.30;64.60;;;;;;5090722;27;20035;-77
2021/01/20 12:15:56;;;;;;;2.13;1.25;;;10.30;65.10;;;;;;5076773;27;20490;-77
2021/01/20 12:18:22;;;;;;;3.70;2.13;;;10.30;65.10;;;;;;5092537;27;20030;-77
2021/01/20 12:20:48;;;;;;;4.82;2.25;;;10.30;65.80;;;;;;4733461;28;9999684;-77
2021/01/20 12:23:14;;;;;;;4.15;2.17;;;10.30;65.90;;;;;;5089601;27;20127;-77
2021/01/20 12:25:40;;;;;;;4.05;2.30;;;10.30;66.90;;;;;;5073787;27;20121;-77
2021/01/20 12:28:05;;;;;;;2.67;1.10;;;10.20;66.80;;;;;;5087542;27;20038;-77
2021/01/20 12:30:31;;;;;;;3.45;1.48;;;10.20;64.40;;;;;;5074602;27;20073;-77
2021/01/20 12:32:56;;;;;;;2.92;1.95;;;10.20;65.20;;;;;;5089899;27;20096;-77
2021/01/20 12:35:22;;;;;;;2.80;1.52;;;10.30;66.20;;;;;;5106886;27;20442;-77
2021/01/20 12:37:47;;;;;;;4.82;2.13;;;10.30;65.50;;;;;;5092053;27;20057;-77
2021/01/20 12:40:13;;;;;;;2.80;1.67;;;10.30;64.80;;;;;;5088632;27;20130;-76
2021/01/20 12:42:38;;;;;;;5.25;2.15;;;10.40;67.00;;;;;;5099810;27;20054;-77
2021/01/20 12:45:04;;;;;;;4.38;2.22;;;10.40;66.60;;;;;;5089843;27;20015;-77
2021/01/20 12:47:30;;;;;;;6.38;2.28;;;10.30;65.70;;;;;;5087945;27;20501;-77
2021/01/20 12:49:55;;;;;;;3.50;1.77;;;10.30;64.60;;;;;;5088023;27;20023;-76
2021/01/20 12:52:21;;;;;;;2.53;1.92;;;10.20;64.80;;;;;;5090196;27;20039;-76
2021/01/20 12:54:47;;;;;;;5.28;2.35;;;10.30;66.90;;;;;;5106605;27;20020;-76
2021/01/20 12:57:12;;;;;;;1.80;1.17;;;10.30;65.10;;;;;;5090303;27;20033;-76